sensor_id;sensor_type;location;lat;lon;timestamp;P1;durP1;ratioP1;P2;durP2;ratioP2
29412;SDS011;16389;50.126;8.450;2024-01-10T15:02:32;19.58;;;11.48;;
29412;SDS011;16389;50.126;8.450;2024-01-10T15:04:58;22.13;;;12.85;;
29412;SDS011;16389;50.126;8.450;2024-01-10T15:07:25;19.58;;;12.90;;
29412;SDS011;16389;50.126;8.450;2024-01-10T15:09:51;18.15;;;11.75;;
29412;SDS011;16389;50.126;8.450;2024-01-10T15:12:17;18.23;;;12.63;;
29412;SDS011;16389;50.126;8.450;2024-01-10T15:14:47;18.33;;;13.38;;
29412;SDS011;16389;50.126;8.450;2024-01-10T15:17:20;21.58;;;13.95;;
29412;SDS011;16389;50.126;8.450;2024-01-10T15:19:46;23.73;;;14.60;;
29412;SDS011;16389;50.126;8.450;2024-01-10T15:22:21;18.42;;;13.00;;
29412;SDS011;16389;50.126;8.450;2024-01-10T15:24:47;20.30;;;13.38;;
29412;SDS011;16389;50.126;8.450;2024-01-10T15:27:16;30.40;;;15.45;;
29412;SDS011;16389;50.126;8.450;2024-01-10T15:29:49;21.17;;;14.25;;
29412;SDS011;16389;50.126;8.450;2024-01-10T15:32:15;21.35;;;14.38;;
29412;SDS011;16389;50.126;8.450;2024-01-10T15:34:41;15.77;;;12.48;;
29412;SDS011;16389;50.126;8.450;2024-01-10T15:37:07;17.48;;;12.55;;
29412;SDS011;16389;50.126;8.450;2024-01-10T15:39:33;24.27;;;13.45;;
29412;SDS011;16389;50.126;8.450;2024-01-10T15:41:59;17.52;;;13.05;;
29412;SDS011;16389;50.126;8.450;2024-01-10T15:44:27;21.73;;;12.65;;
29412;SDS011;16389;50.126;8.450;2024-01-10T15:46:54;20.35;;;12.82;;
29412;SDS011;16389;50.126;8.450;2024-01-10T15:49:28;19.83;;;13.57;;
29412;SDS011;16389;50.126;8.450;2024-01-10T15:52:00;31.15;;;13.95;;
29412;SDS011;16389;50.126;8.450;2024-01-10T15:54:26;27.23;;;15.98;;
29412;SDS011;16389;50.126;8.450;2024-01-10T15:56:52;26.98;;;16.60;;
29412;SDS011;16389;50.126;8.450;2024-01-10T15:59:24;21.30;;;13.93;;
29412;SDS011;16389;50.126;8.450;2024-01-10T16:01:50;22.67;;;12.73;;
29412;SDS011;16389;50.126;8.450;2024-01-10T16:04:22;18.60;;;12.45;;
29412;SDS011;16389;50.126;8.450;2024-01-10T16:06:51;20.02;;;13.02;;
29412;SDS011;16389;50.126;8.450;2024-01-10T16:09:17;17.65;;;11.50;;
29412;SDS011;16389;50.126;8.450;2024-01-10T16:11:43;18.45;;;11.68;;
29412;SDS011;16389;50.126;8.450;2024-01-10T16:14:09;22.55;;;12.98;;
29412;SDS011;16389;50.126;8.450;2024-01-10T16:16:35;21.95;;;13.32;;
29412;SDS011;16389;50.126;8.450;2024-01-10T16:19:10;20.75;;;12.57;;
29412;SDS011;16389;50.126;8.450;2024-01-10T16:21:42;22.02;;;13.30;;
29412;SDS011;16389;50.126;8.450;2024-01-10T16:24:11;26.20;;;13.15;;
29412;SDS011;16389;50.126;8.450;2024-01-10T16:26:40;33.85;;;16.27;;
29412;SDS011;16389;50.126;8.450;2024-01-10T16:29:05;23.58;;;13.18;;
29412;SDS011;16389;50.126;8.450;2024-01-10T16:31:32;25.88;;;14.02;;
29412;SDS011;16389;50.126;8.450;2024-01-10T16:33:58;24.35;;;14.32;;
29412;SDS011;16389;50.126;8.450;2024-01-10T16:36:25;27.75;;;13.52;;
29412;SDS011;16389;50.126;8.450;2024-01-10T16:38:51;28.90;;;13.85;;
29412;SDS011;16389;50.126;8.450;2024-01-10T16:41:17;27.42;;;14.88;;
29412;SDS011;16389;50.126;8.450;2024-01-10T16:43:43;21.10;;;13.52;;
29412;SDS011;16389;50.126;8.450;2024-01-10T16:46:09;25.20;;;14.25;;
29412;SDS011;16389;50.126;8.450;2024-01-10T16:48:36;26.00;;;14.65;;
29412;SDS011;16389;50.126;8.450;2024-01-10T16:51:02;26.52;;;14.95;;
29412;SDS011;16389;50.126;8.450;2024-01-10T16:53:28;24.33;;;14.55;;
29412;SDS011;16389;50.126;8.450;2024-01-10T16:55:54;26.52;;;14.75;;
29412;SDS011;16389;50.126;8.450;2024-01-10T16:58:21;26.63;;;14.20;;
29412;SDS011;16389;50.126;8.450;2024-01-10T17:00:47;27.77;;;14.70;;
29412;SDS011;16389;50.126;8.450;2024-01-10T17:03:13;22.90;;;14.10;;
29412;SDS011;16389;50.126;8.450;2024-01-10T17:05:39;23.63;;;13.93;;
29412;SDS011;16389;50.126;8.450;2024-01-10T17:08:08;26.30;;;13.47;;
29412;SDS011;16389;50.126;8.450;2024-01-10T17:10:34;24.85;;;14.38;;
29412;SDS011;16389;50.126;8.450;2024-01-10T17:13:00;25.30;;;14.82;;
29412;SDS011;16389;50.126;8.450;2024-01-10T17:15:35;27.02;;;15.15;;
29412;SDS011;16389;50.126;8.450;2024-01-10T17:18:03;29.35;;;14.27;;
29412;SDS011;16389;50.126;8.450;2024-01-10T17:20:29;26.00;;;14.50;;
29412;SDS011;16389;50.126;8.450;2024-01-10T17:22:57;29.15;;;14.43;;
29412;SDS011;16389;50.126;8.450;2024-01-10T17:25:26;30.58;;;15.20;;
29412;SDS011;16389;50.126;8.450;2024-01-10T17:27:53;22.30;;;14.45;;
29412;SDS011;16389;50.126;8.450;2024-01-10T17:30:18;27.65;;;15.45;;
29412;SDS011;16389;50.126;8.450;2024-01-10T17:32:44;32.38;;;18.23;;
29412;SDS011;16389;50.126;8.450;2024-01-10T17:35:12;34.83;;;17.02;;
29412;SDS011;16389;50.126;8.450;2024-01-10T17:37:38;33.20;;;16.67;;
29412;SDS011;16389;50.126;8.450;2024-01-10T17:40:04;35.70;;;16.23;;
29412;SDS011;16389;50.126;8.450;2024-01-10T17:42:37;29.08;;;17.15;;
29412;SDS011;16389;50.126;8.450;2024-01-10T17:45:06;45.28;;;19.50;;
29412;SDS011;16389;50.126;8.450;2024-01-10T17:47:32;34.42;;;17.05;;
29412;SDS011;16389;50.126;8.450;2024-01-10T17:49:58;28.23;;;16.10;;
29412;SDS011;16389;50.126;8.450;2024-01-10T17:52:24;30.60;;;17.58;;
29412;SDS011;16389;50.126;8.450;2024-01-10T17:54:50;30.17;;;16.80;;
29412;SDS011;16389;50.126;8.450;2024-01-10T17:57:19;31.45;;;18.35;;
29412;SDS011;16389;50.126;8.450;2024-01-10T17:59:48;33.55;;;19.27;;
29412;SDS011;16389;50.126;8.450;2024-01-10T18:02:21;31.45;;;17.08;;
29412;SDS011;16389;50.126;8.450;2024-01-10T18:04:50;38.65;;;18.45;;
29412;SDS011;16389;50.126;8.450;2024-01-10T18:07:16;28.40;;;16.67;;
29412;SDS011;16389;50.126;8.450;2024-01-10T18:09:41;33.67;;;17.45;;
29412;SDS011;16389;50.126;8.450;2024-01-10T18:12:07;27.42;;;16.77;;
29412;SDS011;16389;50.126;8.450;2024-01-10T18:14:38;27.95;;;16.88;;
29412;SDS011;16389;50.126;8.450;2024-01-10T18:17:04;31.90;;;17.23;;
29412;SDS011;16389;50.126;8.450;2024-01-10T18:19:30;33.65;;;17.52;;
29412;SDS011;16389;50.126;8.450;2024-01-10T18:21:56;27.13;;;16.60;;
29412;SDS011;16389;50.126;8.450;2024-01-10T18:24:22;30.48;;;16.88;;
29412;SDS011;16389;50.126;8.450;2024-01-10T18:26:50;29.77;;;15.88;;
29412;SDS011;16389;50.126;8.450;2024-01-10T18:29:19;35.33;;;15.88;;
29412;SDS011;16389;50.126;8.450;2024-01-10T18:31:44;29.40;;;15.75;;
29412;SDS011;16389;50.126;8.450;2024-01-10T18:34:12;30.15;;;15.45;;
29412;SDS011;16389;50.126;8.450;2024-01-10T18:36:37;22.63;;;13.48;;
29412;SDS011;16389;50.126;8.450;2024-01-10T18:39:03;27.67;;;14.07;;
29412;SDS011;16389;50.126;8.450;2024-01-10T18:41:31;26.17;;;15.60;;
29412;SDS011;16389;50.126;8.450;2024-01-10T18:44:00;24.43;;;14.13;;
29412;SDS011;16389;50.126;8.450;2024-01-10T18:46:27;22.55;;;14.35;;
29412;SDS011;16389;50.126;8.450;2024-01-10T18:48:54;26.67;;;14.75;;
29412;SDS011;16389;50.126;8.450;2024-01-10T18:51:22;27.05;;;15.55;;
29412;SDS011;16389;50.126;8.450;2024-01-10T18:53:47;21.50;;;14.23;;
29412;SDS011;16389;50.126;8.450;2024-01-10T18:56:16;23.20;;;13.27;;
29412;SDS011;16389;50.126;8.450;2024-01-10T18:58:43;24.20;;;13.80;;
29412;SDS011;16389;50.126;8.450;2024-01-10T19:01:08;26.23;;;14.88;;
29412;SDS011;16389;50.126;8.450;2024-01-10T19:03:34;23.23;;;14.80;;
29412;SDS011;16389;50.126;8.450;2024-01-10T19:06:00;28.70;;;14.32;;
29412;SDS011;16389;50.126;8.450;2024-01-10T19:08:26;25.48;;;15.95;;
29412;SDS011;16389;50.126;8.450;2024-01-10T19:10:52;26.27;;;14.10;;
29412;SDS011;16389;50.126;8.450;2024-01-10T19:13:23;24.15;;;13.68;;
29412;SDS011;16389;50.126;8.450;2024-01-10T19:15:49;28.73;;;15.30;;
29412;SDS011;16389;50.126;8.450;2024-01-10T19:18:18;25.05;;;12.80;;
29412;SDS011;16389;50.126;8.450;2024-01-10T19:20:44;27.48;;;14.45;;
29412;SDS011;16389;50.126;8.450;2024-01-10T19:23:12;28.70;;;15.35;;
29412;SDS011;16389;50.126;8.450;2024-01-10T19:25:39;23.52;;;15.25;;
29412;SDS011;16389;50.126;8.450;2024-01-10T19:28:22;26.48;;;14.40;;
29412;SDS011;16389;50.126;8.450;2024-01-10T19:30:49;25.67;;;14.98;;
29412;SDS011;16389;50.126;8.450;2024-01-10T19:33:20;22.88;;;13.82;;
29412;SDS011;16389;50.126;8.450;2024-01-10T19:35:48;27.70;;;15.40;;
29412;SDS011;16389;50.126;8.450;2024-01-10T19:38:14;29.48;;;15.70;;
29412;SDS011;16389;50.126;8.450;2024-01-10T19:40:40;27.13;;;15.27;;
29412;SDS011;16389;50.126;8.450;2024-01-10T19:43:08;25.95;;;16.42;;
29412;SDS011;16389;50.126;8.450;2024-01-10T19:45:36;32.95;;;15.75;;
29412;SDS011;16389;50.126;8.450;2024-01-10T19:48:08;28.85;;;16.70;;
29412;SDS011;16389;50.126;8.450;2024-01-10T19:50:37;26.48;;;14.30;;
29412;SDS011;16389;50.126;8.450;2024-01-10T19:53:05;31.38;;;15.35;;
29412;SDS011;16389;50.126;8.450;2024-01-10T19:55:31;24.67;;;13.90;;
29412;SDS011;16389;50.126;8.450;2024-01-10T19:57:57;22.83;;;13.63;;
29412;SDS011;16389;50.126;8.450;2024-01-10T20:00:23;28.65;;;15.93;;
29412;SDS011;16389;50.126;8.450;2024-01-10T20:02:49;25.80;;;14.20;;
29412;SDS011;16389;50.126;8.450;2024-01-10T20:05:19;24.67;;;14.38;;
29412;SDS011;16389;50.126;8.450;2024-01-10T20:07:45;24.60;;;14.70;;
29412;SDS011;16389;50.126;8.450;2024-01-10T20:10:14;29.03;;;13.80;;
29412;SDS011;16389;50.126;8.450;2024-01-10T20:12:40;23.65;;;14.13;;
29412;SDS011;16389;50.126;8.450;2024-01-10T20:15:07;31.05;;;15.18;;
29412;SDS011;16389;50.126;8.450;2024-01-10T20:17:44;29.23;;;15.18;;
29412;SDS011;16389;50.126;8.450;2024-01-10T20:20:13;26.38;;;13.07;;
29412;SDS011;16389;50.126;8.450;2024-01-10T20:22:42;21.20;;;10.90;;
29412;SDS011;16389;50.126;8.450;2024-01-10T20:25:08;29.88;;;12.63;;
29412;SDS011;16389;50.126;8.450;2024-01-10T20:27:34;24.50;;;14.73;;
29412;SDS011;16389;50.126;8.450;2024-01-10T20:30:00;23.30;;;13.63;;
29412;SDS011;16389;50.126;8.450;2024-01-10T20:32:25;24.45;;;14.13;;
29412;SDS011;16389;50.126;8.450;2024-01-10T20:34:53;24.55;;;14.38;;
29412;SDS011;16389;50.126;8.450;2024-01-10T20:37:19;21.55;;;12.23;;
29412;SDS011;16389;50.126;8.450;2024-01-10T20:39:45;22.70;;;13.93;;
29412;SDS011;16389;50.126;8.450;2024-01-10T20:42:11;25.85;;;13.23;;
29412;SDS011;16389;50.126;8.450;2024-01-10T20:44:37;22.60;;;12.63;;
29412;SDS011;16389;50.126;8.450;2024-01-10T20:47:03;21.40;;;12.40;;
29412;SDS011;16389;50.126;8.450;2024-01-10T20:49:32;21.40;;;12.55;;
29412;SDS011;16389;50.126;8.450;2024-01-10T20:51:58;21.98;;;13.07;;
29412;SDS011;16389;50.126;8.450;2024-01-10T20:54:24;18.33;;;11.45;;
29412;SDS011;16389;50.126;8.450;2024-01-10T20:56:50;21.80;;;12.77;;
29412;SDS011;16389;50.126;8.450;2024-01-10T20:59:18;18.13;;;11.65;;
29412;SDS011;16389;50.126;8.450;2024-01-10T21:01:44;24.30;;;12.35;;
29412;SDS011;16389;50.126;8.450;2024-01-10T21:04:10;18.50;;;12.02;;
29412;SDS011;16389;50.126;8.450;2024-01-10T21:06:36;24.08;;;13.52;;
29412;SDS011;16389;50.126;8.450;2024-01-10T21:09:02;25.35;;;12.15;;
29412;SDS011;16389;50.126;8.450;2024-01-10T21:11:28;21.90;;;12.85;;
29412;SDS011;16389;50.126;8.450;2024-01-10T21:13:54;20.73;;;13.20;;
29412;SDS011;16389;50.126;8.450;2024-01-10T21:16:19;24.90;;;13.27;;
29412;SDS011;16389;50.126;8.450;2024-01-10T21:18:45;25.30;;;12.52;;
29412;SDS011;16389;50.126;8.450;2024-01-10T21:21:14;22.57;;;13.03;;
29412;SDS011;16389;50.126;8.450;2024-01-10T21:23:46;22.65;;;12.85;;
29412;SDS011;16389;50.126;8.450;2024-01-10T21:26:15;22.77;;;13.37;;
29412;SDS011;16389;50.126;8.450;2024-01-10T21:28:41;24.95;;;12.63;;
29412;SDS011;16389;50.126;8.450;2024-01-10T21:31:10;20.25;;;12.38;;
29412;SDS011;16389;50.126;8.450;2024-01-10T21:33:39;22.67;;;12.40;;
29412;SDS011;16389;50.126;8.450;2024-01-10T21:36:04;23.30;;;12.60;;
29412;SDS011;16389;50.126;8.450;2024-01-10T21:38:30;25.13;;;12.95;;
29412;SDS011;16389;50.126;8.450;2024-01-10T21:40:56;23.00;;;12.35;;
29412;SDS011;16389;50.126;8.450;2024-01-10T21:43:22;24.08;;;12.82;;
29412;SDS011;16389;50.126;8.450;2024-01-10T21:45:58;19.83;;;11.57;;
29412;SDS011;16389;50.126;8.450;2024-01-10T21:48:24;25.23;;;13.05;;
29412;SDS011;16389;50.126;8.450;2024-01-10T21:50:52;31.65;;;12.77;;
29412;SDS011;16389;50.126;8.450;2024-01-10T21:53:18;17.92;;;11.40;;
29412;SDS011;16389;50.126;8.450;2024-01-10T21:55:44;19.30;;;12.45;;
29412;SDS011;16389;50.126;8.450;2024-01-10T21:58:13;18.60;;;11.40;;
29412;SDS011;16389;50.126;8.450;2024-01-10T22:00:42;16.23;;;11.52;;
29412;SDS011;16389;50.126;8.450;2024-01-10T22:03:11;19.00;;;11.18;;
29412;SDS011;16389;50.126;8.450;2024-01-10T22:05:37;22.55;;;12.18;;
29412;SDS011;16389;50.126;8.450;2024-01-10T22:08:03;25.25;;;13.27;;
29412;SDS011;16389;50.126;8.450;2024-01-10T22:10:29;21.60;;;11.43;;
29412;SDS011;16389;50.126;8.450;2024-01-10T22:12:55;18.08;;;11.95;;
29412;SDS011;16389;50.126;8.450;2024-01-10T22:15:21;20.80;;;12.70;;
29412;SDS011;16389;50.126;8.450;2024-01-10T22:17:47;24.45;;;12.85;;
29412;SDS011;16389;50.126;8.450;2024-01-10T22:20:17;17.67;;;12.07;;
29412;SDS011;16389;50.126;8.450;2024-01-10T22:22:42;24.30;;;12.55;;
29412;SDS011;16389;50.126;8.450;2024-01-10T22:25:08;16.95;;;11.55;;
29412;SDS011;16389;50.126;8.450;2024-01-10T22:27:35;23.85;;;11.95;;
29412;SDS011;16389;50.126;8.450;2024-01-10T22:30:03;21.33;;;12.50;;
29412;SDS011;16389;50.126;8.450;2024-01-10T22:32:30;25.05;;;11.80;;
29412;SDS011;16389;50.126;8.450;2024-01-10T22:34:56;19.17;;;12.20;;
29412;SDS011;16389;50.126;8.450;2024-01-10T22:37:22;22.40;;;13.05;;
29412;SDS011;16389;50.126;8.450;2024-01-10T22:39:47;23.42;;;12.98;;
29412;SDS011;16389;50.126;8.450;2024-01-10T22:42:13;23.27;;;12.73;;
29412;SDS011;16389;50.126;8.450;2024-01-10T22:44:40;20.15;;;13.30;;
29412;SDS011;16389;50.126;8.450;2024-01-10T22:47:06;17.83;;;12.05;;
29412;SDS011;16389;50.126;8.450;2024-01-10T22:49:32;26.48;;;13.60;;
29412;SDS011;16389;50.126;8.450;2024-01-10T22:52:01;20.93;;;13.60;;
29412;SDS011;16389;50.126;8.450;2024-01-10T22:54:30;23.20;;;12.70;;
29412;SDS011;16389;50.126;8.450;2024-01-10T22:56:56;25.33;;;12.60;;
29412;SDS011;16389;50.126;8.450;2024-01-10T22:59:22;20.92;;;12.88;;
29412;SDS011;16389;50.126;8.450;2024-01-10T23:01:48;20.88;;;12.52;;
29412;SDS011;16389;50.126;8.450;2024-01-10T23:04:19;22.10;;;13.35;;
29412;SDS011;16389;50.126;8.450;2024-01-10T23:06:51;25.42;;;13.38;;
29412;SDS011;16389;50.126;8.450;2024-01-10T23:09:20;27.57;;;14.03;;
29412;SDS011;16389;50.126;8.450;2024-01-10T23:11:57;23.88;;;14.18;;
29412;SDS011;16389;50.126;8.450;2024-01-10T23:14:23;24.73;;;13.90;;
29412;SDS011;16389;50.126;8.450;2024-01-10T23:16:49;23.00;;;13.80;;
29412;SDS011;16389;50.126;8.450;2024-01-10T23:19:18;26.63;;;13.75;;
29412;SDS011;16389;50.126;8.450;2024-01-10T23:21:44;27.83;;;14.98;;
29412;SDS011;16389;50.126;8.450;2024-01-10T23:24:10;26.85;;;13.88;;
29412;SDS011;16389;50.126;8.450;2024-01-10T23:26:39;28.53;;;13.37;;
29412;SDS011;16389;50.126;8.450;2024-01-10T23:29:05;24.10;;;14.90;;
29412;SDS011;16389;50.126;8.450;2024-01-10T23:31:34;17.13;;;12.48;;
29412;SDS011;16389;50.126;8.450;2024-01-10T23:34:17;23.58;;;13.60;;
29412;SDS011;16389;50.126;8.450;2024-01-10T23:36:52;23.00;;;12.65;;
29412;SDS011;16389;50.126;8.450;2024-01-10T23:39:18;25.73;;;13.57;;
29412;SDS011;16389;50.126;8.450;2024-01-10T23:41:44;24.27;;;13.38;;
29412;SDS011;16389;50.126;8.450;2024-01-10T23:44:12;29.55;;;13.70;;
29412;SDS011;16389;50.126;8.450;2024-01-10T23:46:41;23.65;;;14.05;;
29412;SDS011;16389;50.126;8.450;2024-01-10T23:49:07;26.38;;;13.88;;
29412;SDS011;16389;50.126;8.450;2024-01-10T23:51:33;21.65;;;13.10;;
29412;SDS011;16389;50.126;8.450;2024-01-10T23:53:59;25.27;;;15.43;;
29412;SDS011;16389;50.126;8.450;2024-01-10T23:56:24;28.98;;;14.27;;
29412;SDS011;16389;50.126;8.450;2024-01-10T23:58:50;30.25;;;14.00;;
